Route Details

Aircraft Information
Group: European Fleet
Types: A30F, A31F, B738
Route Data
Distance: 576nm
Duration: 1h 44m
Origin METAR: ENGM 160120Z VRB02KT 9999 SHRA NSC 17/16 Q1010
Dest. METAR: EDDK 160120Z AUTO 13003KT 100V160 CAVOK 19/14 Q1008 NOSIG
Freight Data
(for Aug 16, 2022)
Load Factor:
42%
Manifested Cargo: 43,044lbs
Financial History
Total Freight: 356,116lbs
Average Load: 0lbs/flt
Fuel Used: 118,977lbs
Avg. Fuel Used: 0lbs/flt
Fuel Expense: $48,628
Avg. Fuel Expense: $0
Avg. Fuel Cost: $0/lbs
Total Gross Income: $775,572
Pilot Pay: $1,554
Total Expenses: $128,778
Total Revenue: $594,653
Average Revenue: $0

Capitol Logistics 595




ENGM
Oslo Airport Gardermoen
Oslo, NO
EDDK
Cologne Bonn Airport
Cologne, DE